Wetterstation Vordersexau
Wetterdaten: Woche 11.09.23 - 17.09.23 (KW37)
Datum Zeit Temp. A. Feuchte A. Luftdruck Regen Wind Richtung Taupunkt Windchill Windben
11.09.2023 00:00 20,0 C 83 % 1011,9 hPa 0,0 l/m 0,0 km/h (0 Bft) SO 17,0 C 20,0 C 2,5 km/h (1 Bft)
11.09.2023 01:00 19,4 C 85 % 1011,7 hPa 0,0 l/m 1,1 km/h (1 Bft) N 16,8 C 19,4 C 2,5 km/h (1 Bft)
11.09.2023 02:00 18,7 C 86 % 1011,6 hPa 0,0 l/m 0,0 km/h (0 Bft) N 16,3 C 18,7 C 2,5 km/h (1 Bft)
11.09.2023 03:00 17,6 C 90 % 1011,2 hPa 0,0 l/m 0,0 km/h (0 Bft) SO 15,9 C 17,6 C 2,5 km/h (1 Bft)
11.09.2023 04:00 16,6 C 93 % 1011,1 hPa 0,0 l/m 1,1 km/h (1 Bft) NO 15,5 C 16,6 C 2,5 km/h (1 Bft)
11.09.2023 05:00 16,9 C 91 % 1011,0 hPa 0,0 l/m 1,1 km/h (1 Bft) N 15,4 C 16,9 C 2,5 km/h (1 Bft)
11.09.2023 06:00 16,5 C 92 % 1010,9 hPa 0,0 l/m 0,0 km/h (0 Bft) N 15,2 C 16,5 C 2,5 km/h (1 Bft)
11.09.2023 07:00 16,1 C 93 % 1010,5 hPa 0,0 l/m 0,0 km/h (0 Bft) NO 15,0 C 16,1 C 0,0 km/h (0 Bft)
11.09.2023 08:00 16,0 C 93 % 1010,6 hPa 0,0 l/m 1,1 km/h (1 Bft) O 14,9 C 16,0 C 2,5 km/h (1 Bft)
11.09.2023 09:00 17,7 C 91 % 1010,5 hPa 0,0 l/m 2,5 km/h (1 Bft) S 16,2 C 17,7 C 3,6 km/h (1 Bft)
11.09.2023 10:00 21,6 C 78 % 1010,7 hPa 0,0 l/m 5,0 km/h (1 Bft) W-SW 17,6 C 21,6 C 6,1 km/h (2 Bft)
11.09.2023 11:00 23,4 C 73 % 1010,6 hPa 0,0 l/m 1,1 km/h (1 Bft) W 18,3 C 23,4 C 2,5 km/h (1 Bft)
11.09.2023 12:00 26,0 C 66 % 1010,4 hPa 0,0 l/m 2,5 km/h (1 Bft) W 19,1 C 26,0 C 3,6 km/h (1 Bft)
11.09.2023 13:00 28,0 C 54 % 1009,8 hPa 0,0 l/m 3,6 km/h (1 Bft) NW 17,8 C 28,0 C 6,1 km/h (2 Bft)
11.09.2023 14:00 30,4 C 53 % 1009,1 hPa 0,0 l/m 2,5 km/h (1 Bft) W 19,7 C 30,4 C 3,6 km/h (1 Bft)
11.09.2023 15:00 30,8 C 52 % 1008,5 hPa 0,0 l/m 3,6 km/h (1 Bft) W 19,8 C 30,8 C 6,1 km/h (2 Bft)
11.09.2023 16:00 32,7 C 39 % 1008,2 hPa 0,0 l/m 5,0 km/h (1 Bft) W 16,9 C 32,7 C 7,2 km/h (2 Bft)
11.09.2023 17:00 32,0 C 33 % 1007,7 hPa 0,0 l/m 2,5 km/h (1 Bft) W 13,7 C 32,0 C 6,1 km/h (2 Bft)
11.09.2023 18:00 32,4 C 37 % 1007,4 hPa 0,0 l/m 1,1 km/h (1 Bft) N 15,8 C 32,4 C 2,5 km/h (1 Bft)
11.09.2023 19:00 31,5 C 43 % 1007,1 hPa 0,0 l/m 0,0 km/h (0 Bft) SO 17,4 C 31,5 C 2,5 km/h (1 Bft)
11.09.2023 20:00 27,9 C 58 % 1007,2 hPa 0,0 l/m 1,1 km/h (1 Bft) O-SO 18,9 C 27,9 C 2,5 km/h (1 Bft)
11.09.2023 21:00 24,3 C 69 % 1007,4 hPa 0,0 l/m 1,1 km/h (1 Bft) O-SO 18,2 C 24,3 C 3,6 km/h (1 Bft)
11.09.2023 22:00 21,9 C 78 % 1007,5 hPa 0,0 l/m 1,1 km/h (1 Bft) N 17,9 C 21,9 C 2,5 km/h (1 Bft)
11.09.2023 23:00 21,6 C 76 % 1007,6 hPa 0,0 l/m 0,0 km/h (0 Bft) N 17,2 C 21,6 C 2,5 km/h (1 Bft)
12.09.2023 00:00 20,3 C 80 % 1007,7 hPa 0,0 l/m 0,0 km/h (0 Bft) O-SO 16,7 C 20,3 C 0,0 km/h (0 Bft)
12.09.2023 01:00 19,9 C 79 % 1007,9 hPa 0,0 l/m 1,1 km/h (1 Bft) O-NO 16,1 C 19,9 C 2,5 km/h (1 Bft)
12.09.2023 02:00 18,7 C 83 % 1007,6 hPa 0,0 l/m 1,1 km/h (1 Bft) N 15,8 C 18,7 C 2,5 km/h (1 Bft)
12.09.2023 03:00 17,6 C 87 % 1007,4 hPa 0,0 l/m 0,0 km/h (0 Bft) O-NO 15,4 C 17,6 C 2,5 km/h (1 Bft)
12.09.2023 04:00 17,8 C 86 % 1007,3 hPa 0,0 l/m 1,1 km/h (1 Bft) O-SO 15,4 C 17,8 C 2,5 km/h (1 Bft)
12.09.2023 05:00 18,1 C 85 % 1007,6 hPa 0,0 l/m 2,5 km/h (1 Bft) O 15,5 C 18,1 C 3,6 km/h (1 Bft)
12.09.2023 06:00 17,0 C 90 % 1007,5 hPa 0,0 l/m 1,1 km/h (1 Bft) O-SO 15,3 C 17,0 C 2,5 km/h (1 Bft)
12.09.2023 07:00 17,1 C 89 % 1007,3 hPa 0,0 l/m 3,6 km/h (1 Bft) N 15,3 C 17,1 C 7,2 km/h (2 Bft)
12.09.2023 08:00 17,3 C 89 % 1007,5 hPa 0,0 l/m 0,0 km/h (0 Bft) O-SO 15,5 C 17,3 C 2,5 km/h (1 Bft)
12.09.2023 09:00 18,7 C 84 % 1007,7 hPa 0,0 l/m 5,0 km/h (1 Bft) N 15,9 C 18,7 C 7,2 km/h (2 Bft)
12.09.2023 10:00 22,5 C 75 % 1007,8 hPa 0,0 l/m 0,0 km/h (0 Bft) O-SO 17,8 C 22,5 C 0,0 km/h (0 Bft)
12.09.2023 11:00 25,3 C 66 % 1008,0 hPa 0,0 l/m 3,6 km/h (1 Bft) W 18,5 C 25,3 C 6,1 km/h (2 Bft)
12.09.2023 12:00 27,5 C 61 % 1008,1 hPa 0,0 l/m 3,6 km/h (1 Bft) S-SW 19,3 C 27,5 C 6,1 km/h (2 Bft)
12.09.2023 13:00 29,5 C 51 % 1007,6 hPa 0,0 l/m 3,6 km/h (1 Bft) SW 18,3 C 29,5 C 6,1 km/h (2 Bft)
12.09.2023 14:00 30,3 C 36 % 1007,4 hPa 0,0 l/m 3,6 km/h (1 Bft) SW 13,5 C 30,3 C 6,1 km/h (2 Bft)
12.09.2023 15:00 31,1 C 40 % 1007,1 hPa 0,0 l/m 3,6 km/h (1 Bft) W-SW 15,9 C 31,1 C 6,1 km/h (2 Bft)
12.09.2023 16:00 30,9 C 39 % 1006,5 hPa 0,0 l/m 2,5 km/h (1 Bft) W-SW 15,3 C 30,9 C 3,6 km/h (1 Bft)
12.09.2023 17:00 31,8 C 31 % 1006,2 hPa 0,0 l/m 7,2 km/h (2 Bft) S-SW 12,6 C 31,8 C 11,2 km/h (2 Bft)
12.09.2023 18:00 31,3 C 36 % 1006,1 hPa 0,0 l/m 2,5 km/h (1 Bft) W 14,4 C 31,3 C 6,1 km/h (2 Bft)
12.09.2023 19:00 29,7 C 41 % 1006,5 hPa 0,0 l/m 6,1 km/h (2 Bft) N 15,0 C 29,7 C 9,7 km/h (2 Bft)
12.09.2023 20:00 26,2 C 56 % 1006,7 hPa 0,0 l/m 0,0 km/h (0 Bft) O-NO 16,7 C 26,2 C 2,5 km/h (1 Bft)
12.09.2023 21:00 24,1 C 61 % 1007,3 hPa 0,0 l/m 1,1 km/h (1 Bft) N 16,1 C 24,1 C 3,6 km/h (1 Bft)
12.09.2023 22:00 22,3 C 68 % 1008,3 hPa 0,0 l/m 0,0 km/h (0 Bft) N 16,1 C 22,3 C 0,0 km/h (0 Bft)
12.09.2023 23:00 21,3 C 71 % 1008,6 hPa 0,0 l/m 0,0 km/h (0 Bft) N 15,8 C 21,3 C 0,0 km/h (0 Bft)
13.09.2023 00:00 20,8 C 76 % 1009,7 hPa 0,0 l/m 0,0 km/h (0 Bft) NW 16,4 C 20,8 C 0,0 km/h (0 Bft)
13.09.2023 01:00 22,3 C 77 % 1010,5 hPa 0,0 l/m 2,5 km/h (1 Bft) N 18,1 C 22,3 C 3,6 km/h (1 Bft)
13.09.2023 02:00 19,6 C 94 % 1010,1 hPa 0,6 l/m 0,0 km/h (0 Bft) N 18,6 C 19,6 C 2,5 km/h (1 Bft)
13.09.2023 03:00 18,8 C 97 % 1010,3 hPa 0,3 l/m 0,0 km/h (0 Bft) N 18,3 C 18,8 C 0,0 km/h (0 Bft)
13.09.2023 04:00 18,2 C 98 % 1010,4 hPa 0,0 l/m 0,0 km/h (0 Bft) N 17,9 C 18,2 C 2,5 km/h (1 Bft)
13.09.2023 05:00 17,7 C 98 % 1010,5 hPa 0,0 l/m 0,0 km/h (0 Bft) N 17,4 C 17,7 C 0,0 km/h (0 Bft)
13.09.2023 06:00 17,7 C 98 % 1010,4 hPa 0,0 l/m 0,0 km/h (0 Bft) N 17,4 C 17,7 C 0,0 km/h (0 Bft)
13.09.2023 07:00 17,8 C 98 % 1010,5 hPa 0,0 l/m 0,0 km/h (0 Bft) N 17,5 C 17,8 C 0,0 km/h (0 Bft)
13.09.2023 08:00 17,9 C 97 % 1011,1 hPa 0,0 l/m 0,0 km/h (0 Bft) N 17,4 C 17,9 C 2,5 km/h (1 Bft)
13.09.2023 09:00 18,4 C 94 % 1011,3 hPa 0,0 l/m 0,0 km/h (0 Bft) W 17,4 C 18,4 C 0,0 km/h (0 Bft)
13.09.2023 10:00 19,4 C 90 % 1011,7 hPa 0,0 l/m 1,1 km/h (1 Bft) W 17,7 C 19,4 C 2,5 km/h (1 Bft)
13.09.2023 11:00 20,5 C 84 % 1012,2 hPa 0,0 l/m 3,6 km/h (1 Bft) W 17,7 C 20,5 C 7,2 km/h (2 Bft)
13.09.2023 12:00 20,8 C 83 % 1012,7 hPa 0,0 l/m 5,0 km/h (1 Bft) N 17,8 C 20,8 C 6,1 km/h (2 Bft)
13.09.2023 13:00 21,8 C 79 % 1012,7 hPa 0,0 l/m 0,0 km/h (0 Bft) W-NW 18,0 C 21,8 C 2,5 km/h (1 Bft)
13.09.2023 14:00 22,4 C 74 % 1012,8 hPa 0,0 l/m 1,1 km/h (1 Bft) NO 17,5 C 22,4 C 3,6 km/h (1 Bft)
13.09.2023 15:00 21,3 C 75 % 1013,0 hPa 0,0 l/m 2,5 km/h (1 Bft) N-NO 16,7 C 21,3 C 6,1 km/h (2 Bft)
13.09.2023 16:00 22,4 C 71 % 1012,7 hPa 0,0 l/m 2,5 km/h (1 Bft) N 16,9 C 22,4 C 3,6 km/h (1 Bft)
13.09.2023 17:00 20,3 C 77 % 1013,0 hPa 0,0 l/m 6,1 km/h (2 Bft) NO 16,1 C 20,3 C 7,2 km/h (2 Bft)
13.09.2023 18:00 18,8 C 86 % 1013,2 hPa 0,0 l/m 1,1 km/h (1 Bft) N 16,4 C 18,8 C 3,6 km/h (1 Bft)
13.09.2023 19:00 19,1 C 86 % 1013,4 hPa 0,0 l/m 0,0 km/h (0 Bft) O 16,7 C 19,1 C 2,5 km/h (1 Bft)
13.09.2023 20:00 19,2 C 87 % 1013,6 hPa 0,0 l/m 1,1 km/h (1 Bft) N 17,0 C 19,2 C 2,5 km/h (1 Bft)
13.09.2023 21:00 18,0 C 92 % 1014,1 hPa 0,0 l/m 0,0 km/h (0 Bft) N 16,7 C 18,0 C 0,0 km/h (0 Bft)
13.09.2023 22:00 17,6 C 94 % 1014,7 hPa 0,0 l/m 0,0 km/h (0 Bft) N 16,6 C 17,6 C 0,0 km/h (0 Bft)
13.09.2023 23:00 17,4 C 94 % 1015,3 hPa 0,0 l/m 0,0 km/h (0 Bft) N 16,4 C 17,4 C 0,0 km/h (0 Bft)
14.09.2023 00:00 17,2 C 95 % 1015,8 hPa 0,0 l/m 0,0 km/h (0 Bft) N 16,4 C 17,2 C 0,0 km/h (0 Bft)
14.09.2023 01:00 17,1 C 95 % 1015,9 hPa 0,0 l/m 0,0 km/h (0 Bft) N 16,3 C 17,1 C 0,0 km/h (0 Bft)
14.09.2023 02:00 16,1 C 97 % 1015,7 hPa 0,0 l/m 0,0 km/h (0 Bft) N 15,6 C 16,1 C 0,0 km/h (0 Bft)
14.09.2023 03:00 15,7 C 97 % 1015,7 hPa 0,0 l/m 0,0 km/h (0 Bft) N 15,2 C 15,7 C 0,0 km/h (0 Bft)
14.09.2023 04:00 15,0 C 98 % 1015,6 hPa 0,0 l/m 0,0 km/h (0 Bft) N 14,7 C 15,0 C 0,0 km/h (0 Bft)
14.09.2023 05:00 14,4 C 99 % 1015,8 hPa 0,0 l/m 0,0 km/h (0 Bft) O-NO 14,2 C 14,4 C 0,0 km/h (0 Bft)
14.09.2023 06:00 14,8 C 99 % 1015,8 hPa 0,0 l/m 1,1 km/h (1 Bft) N 14,6 C 14,8 C 2,5 km/h (1 Bft)
14.09.2023 07:00 14,2 C 99 % 1016,0 hPa 0,0 l/m 0,0 km/h (0 Bft) N 14,0 C 14,2 C 0,0 km/h (0 Bft)
14.09.2023 08:00 14,7 C 99 % 1016,3 hPa 0,0 l/m 0,0 km/h (0 Bft) O-NO 14,5 C 14,7 C 0,0 km/h (0 Bft)
14.09.2023 09:00 15,2 C 97 % 1016,5 hPa 0,0 l/m 1,1 km/h (1 Bft) N 14,7 C 15,2 C 2,5 km/h (1 Bft)
14.09.2023 10:00 16,7 C 92 % 1016,7 hPa 0,0 l/m 0,0 km/h (0 Bft) W-NW 15,4 C 16,7 C 0,0 km/h (0 Bft)
14.09.2023 11:00 17,6 C 92 % 1017,0 hPa 0,0 l/m 2,5 km/h (1 Bft) W-SW 16,3 C 17,6 C 3,6 km/h (1 Bft)
14.09.2023 12:00 19,1 C 85 % 1016,7 hPa 0,0 l/m 5,0 km/h (1 Bft) W 16,5 C 19,1 C 6,1 km/h (2 Bft)
14.09.2023 13:00 21,5 C 79 % 1016,2 hPa 0,0 l/m 6,1 km/h (2 Bft) W 17,7 C 21,5 C 9,7 km/h (2 Bft)
14.09.2023 14:00 22,5 C 77 % 1015,4 hPa 0,0 l/m 6,1 km/h (2 Bft) W-NW 18,3 C 22,5 C 11,2 km/h (2 Bft)
14.09.2023 15:00 22,7 C 73 % 1014,9 hPa 0,0 l/m 6,1 km/h (2 Bft) NO 17,6 C 22,7 C 11,2 km/h (2 Bft)
14.09.2023 16:00 23,1 C 65 % 1014,5 hPa 0,0 l/m 5,0 km/h (1 Bft) NO 16,2 C 23,1 C 7,2 km/h (2 Bft)
14.09.2023 17:00 23,7 C 59 % 1014,1 hPa 0,0 l/m 3,6 km/h (1 Bft) NO 15,2 C 23,7 C 6,1 km/h (2 Bft)
14.09.2023 18:00 24,0 C 56 % 1013,8 hPa 0,0 l/m 1,1 km/h (1 Bft) NO 14,7 C 24,0 C 2,5 km/h (1 Bft)
14.09.2023 19:00 23,4 C 61 % 1013,8 hPa 0,0 l/m 1,1 km/h (1 Bft) N 15,4 C 23,4 C 2,5 km/h (1 Bft)
14.09.2023 20:00 22,0 C 66 % 1013,8 hPa 0,0 l/m 0,0 km/h (0 Bft) NO 15,3 C 22,0 C 2,5 km/h (1 Bft)
14.09.2023 21:00 20,0 C 77 % 1014,0 hPa 0,0 l/m 2,5 km/h (1 Bft) N 15,8 C 20,0 C 6,1 km/h (2 Bft)
14.09.2023 22:00 18,4 C 82 % 1014,2 hPa 0,0 l/m 0,0 km/h (0 Bft) NO 15,3 C 18,4 C 0,0 km/h (0 Bft)
14.09.2023 23:00 17,1 C 86 % 1014,1 hPa 0,0 l/m 1,1 km/h (1 Bft) N 14,7 C 17,1 C 2,5 km/h (1 Bft)
15.09.2023 00:00 15,9 C 89 % 1014,2 hPa 0,0 l/m 0,0 km/h (0 Bft) NO 14,1 C 15,9 C 0,0 km/h (0 Bft)
15.09.2023 01:00 15,1 C 90 % 1013,8 hPa 0,0 l/m 1,1 km/h (1 Bft) NO 13,5 C 15,1 C 2,5 km/h (1 Bft)
15.09.2023 02:00 15,0 C 90 % 1013,6 hPa 0,0 l/m 1,1 km/h (1 Bft) N-NW 13,4 C 15,0 C 2,5 km/h (1 Bft)
15.09.2023 03:00 14,5 C 90 % 1013,3 hPa 0,0 l/m 3,6 km/h (1 Bft) N-NW 12,9 C 14,5 C 3,6 km/h (1 Bft)
15.09.2023 04:00 14,0 C 89 % 1013,2 hPa 0,0 l/m 1,1 km/h (1 Bft) N 12,2 C 14,0 C 2,5 km/h (1 Bft)
15.09.2023 05:00 12,2 C 93 % 1013,1 hPa 0,0 l/m 0,0 km/h (0 Bft) N 11,1 C 12,2 C 0,0 km/h (0 Bft)
15.09.2023 06:00 11,4 C 96 % 1013,0 hPa 0,0 l/m 0,0 km/h (0 Bft) N 10,8 C 11,4 C 0,0 km/h (0 Bft)
15.09.2023 07:00 11,2 C 98 % 1012,9 hPa 0,0 l/m 0,0 km/h (0 Bft) N 10,9 C 11,2 C 0,0 km/h (0 Bft)
15.09.2023 08:00 11,1 C 98 % 1013,5 hPa 0,0 l/m 0,0 km/h (0 Bft) N 10,8 C 11,1 C 0,0 km/h (0 Bft)
15.09.2023 09:00 12,3 C 97 % 1013,3 hPa 0,0 l/m 0,0 km/h (0 Bft) N 11,8 C 12,3 C 2,5 km/h (1 Bft)
15.09.2023 10:00 15,2 C 87 % 1013,6 hPa 0,0 l/m 0,0 km/h (0 Bft) W-SW 13,0 C 15,2 C 2,5 km/h (1 Bft)
15.09.2023 11:00 16,8 C 83 % 1013,3 hPa 0,0 l/m 2,5 km/h (1 Bft) W 13,9 C 16,8 C 6,1 km/h (2 Bft)
15.09.2023 12:00 18,9 C 78 % 1013,0 hPa 0,0 l/m 6,1 km/h (2 Bft) W-SW 15,0 C 18,9 C 9,7 km/h (2 Bft)
15.09.2023 13:00 21,0 C 75 % 1012,5 hPa 0,0 l/m 6,1 km/h (2 Bft) N 16,4 C 21,0 C 9,7 km/h (2 Bft)
15.09.2023 14:00 22,6 C 66 % 1011,7 hPa 0,0 l/m 2,5 km/h (1 Bft) W-NW 15,9 C 22,6 C 3,6 km/h (1 Bft)
15.09.2023 15:00 24,5 C 62 % 1011,2 hPa 0,0 l/m 3,6 km/h (1 Bft) NO 16,7 C 24,5 C 7,2 km/h (2 Bft)
15.09.2023 16:00 24,7 C 61 % 1010,5 hPa 0,0 l/m 3,6 km/h (1 Bft) N-NO 16,7 C 24,7 C 7,2 km/h (2 Bft)
15.09.2023 17:00 26,1 C 60 % 1009,7 hPa 0,0 l/m 1,1 km/h (1 Bft) W-NW 17,7 C 26,1 C 3,6 km/h (1 Bft)
15.09.2023 18:00 26,3 C 60 % 1009,2 hPa 0,0 l/m 5,0 km/h (1 Bft) W 17,9 C 26,3 C 7,2 km/h (2 Bft)
15.09.2023 19:00 24,6 C 66 % 1009,1 hPa 0,0 l/m 3,6 km/h (1 Bft) W-SW 17,8 C 24,6 C 3,6 km/h (1 Bft)
15.09.2023 20:00 23,6 C 71 % 1009,2 hPa 0,0 l/m 1,1 km/h (1 Bft) W 18,0 C 23,6 C 2,5 km/h (1 Bft)
15.09.2023 21:00 20,3 C 83 % 1009,2 hPa 0,0 l/m 1,1 km/h (1 Bft) N 17,3 C 20,3 C 2,5 km/h (1 Bft)
15.09.2023 22:00 18,7 C 87 % 1009,5 hPa 0,0 l/m 0,0 km/h (0 Bft) N 16,5 C 18,7 C 0,0 km/h (0 Bft)
15.09.2023 23:00 17,8 C 92 % 1009,3 hPa 0,0 l/m 1,1 km/h (1 Bft) N 16,5 C 17,8 C 2,5 km/h (1 Bft)
16.09.2023 00:00 17,1 C 93 % 1009,4 hPa 0,0 l/m 0,0 km/h (0 Bft) N 16,0 C 17,1 C 0,0 km/h (0 Bft)
16.09.2023 01:00 16,2 C 95 % 1009,5 hPa 0,0 l/m 0,0 km/h (0 Bft) N 15,4 C 16,2 C 2,5 km/h (1 Bft)
16.09.2023 02:00 16,4 C 94 % 1009,4 hPa 0,0 l/m 0,0 km/h (0 Bft) N-NO 15,4 C 16,4 C 0,0 km/h (0 Bft)
16.09.2023 03:00 16,0 C 95 % 1009,6 hPa 0,0 l/m 1,1 km/h (1 Bft) NO 15,2 C 16,0 C 2,5 km/h (1 Bft)
16.09.2023 04:00 15,6 C 95 % 1009,8 hPa 0,0 l/m 1,1 km/h (1 Bft) N 14,8 C 15,6 C 2,5 km/h (1 Bft)
16.09.2023 05:00 14,7 C 97 % 1009,8 hPa 0,0 l/m 0,0 km/h (0 Bft) N 14,2 C 14,7 C 2,5 km/h (1 Bft)
16.09.2023 06:00 14,7 C 97 % 1009,6 hPa 0,0 l/m 0,0 km/h (0 Bft) N 14,2 C 14,7 C 0,0 km/h (0 Bft)
16.09.2023 07:00 14,7 C 96 % 1009,0 hPa 0,0 l/m 0,0 km/h (0 Bft) N 14,1 C 14,7 C 2,5 km/h (1 Bft)
16.09.2023 08:00 14,6 C 95 % 1008,8 hPa 0,0 l/m 0,0 km/h (0 Bft) O-SO 13,8 C 14,6 C 0,0 km/h (0 Bft)
16.09.2023 09:00 15,2 C 94 % 1009,2 hPa 0,0 l/m 2,5 km/h (1 Bft) SO 14,2 C 15,2 C 3,6 km/h (1 Bft)
16.09.2023 10:00 18,9 C 85 % 1009,5 hPa 0,0 l/m 3,6 km/h (1 Bft) N 16,3 C 18,9 C 6,1 km/h (2 Bft)
16.09.2023 11:00 20,0 C 81 % 1009,7 hPa 0,0 l/m 0,0 km/h (0 Bft) N 16,6 C 20,0 C 2,5 km/h (1 Bft)
16.09.2023 12:00 20,8 C 79 % 1009,9 hPa 0,0 l/m 0,0 km/h (0 Bft) W 17,0 C 20,8 C 0,0 km/h (0 Bft)
16.09.2023 13:00 21,9 C 77 % 1009,7 hPa 0,0 l/m 2,5 km/h (1 Bft) W 17,7 C 21,9 C 3,6 km/h (1 Bft)
16.09.2023 14:00 23,9 C 71 % 1009,1 hPa 0,0 l/m 3,6 km/h (1 Bft) NW 18,3 C 23,9 C 6,1 km/h (2 Bft)
16.09.2023 15:00 25,6 C 68 % 1008,8 hPa 0,0 l/m 3,6 km/h (1 Bft) W 19,2 C 25,6 C 7,2 km/h (2 Bft)
16.09.2023 16:00 25,2 C 65 % 1008,9 hPa 0,0 l/m 2,5 km/h (1 Bft) W 18,1 C 25,2 C 3,6 km/h (1 Bft)
16.09.2023 17:00 24,6 C 69 % 1009,0 hPa 0,0 l/m 2,5 km/h (1 Bft) N-NO 18,5 C 24,6 C 6,1 km/h (2 Bft)
16.09.2023 18:00 25,0 C 66 % 1008,7 hPa 0,0 l/m 1,1 km/h (1 Bft) W 18,2 C 25,0 C 3,6 km/h (1 Bft)
16.09.2023 19:00 24,2 C 72 % 1009,1 hPa 0,0 l/m 2,5 km/h (1 Bft) W 18,8 C 24,2 C 3,6 km/h (1 Bft)
16.09.2023 20:00 23,1 C 78 % 1008,8 hPa 0,0 l/m 1,1 km/h (1 Bft) N 19,0 C 23,1 C 2,5 km/h (1 Bft)
16.09.2023 21:00 21,7 C 84 % 1009,2 hPa 0,0 l/m 0,0 km/h (0 Bft) NW 18,9 C 21,7 C 2,5 km/h (1 Bft)
16.09.2023 22:00 20,7 C 87 % 1009,4 hPa 0,0 l/m 1,1 km/h (1 Bft) N 18,5 C 20,7 C 2,5 km/h (1 Bft)
16.09.2023 23:00 19,9 C 88 % 1009,6 hPa 0,0 l/m 0,0 km/h (0 Bft) N 17,8 C 19,9 C 0,0 km/h (0 Bft)
17.09.2023 00:00 17,9 C 94 % 1009,9 hPa 0,0 l/m 0,0 km/h (0 Bft) N 16,9 C 17,9 C 2,5 km/h (1 Bft)
17.09.2023 01:00 18,0 C 93 % 1009,9 hPa 0,0 l/m 0,0 km/h (0 Bft) NO 16,8 C 18,0 C 0,0 km/h (0 Bft)
17.09.2023 02:00 17,5 C 93 % 1009,8 hPa 0,0 l/m 1,1 km/h (1 Bft) SO 16,4 C 17,5 C 2,5 km/h (1 Bft)
17.09.2023 03:00 17,0 C 93 % 1009,9 hPa 0,0 l/m 2,5 km/h (1 Bft) N 15,9 C 17,0 C 6,1 km/h (2 Bft)
17.09.2023 04:00 16,2 C 94 % 1010,1 hPa 0,0 l/m 0,0 km/h (0 Bft) N 15,2 C 16,2 C 2,5 km/h (1 Bft)
17.09.2023 05:00 16,5 C 92 % 1010,4 hPa 0,0 l/m 0,0 km/h (0 Bft) O-SO 15,2 C 16,5 C 0,0 km/h (0 Bft)
17.09.2023 06:00 16,1 C 93 % 1009,8 hPa 0,0 l/m 1,1 km/h (1 Bft) O-SO 15,0 C 16,1 C 2,5 km/h (1 Bft)
17.09.2023 07:00 15,8 C 93 % 1010,0 hPa 0,0 l/m 1,1 km/h (1 Bft) N 14,7 C 15,8 C 2,5 km/h (1 Bft)
17.09.2023 08:00 15,7 C 94 % 1010,2 hPa 0,0 l/m 0,0 km/h (0 Bft) N 14,7 C 15,7 C 0,0 km/h (0 Bft)
17.09.2023 09:00 17,5 C 89 % 1010,4 hPa 0,0 l/m 0,0 km/h (0 Bft) O-SO 15,7 C 17,5 C 0,0 km/h (0 Bft)
17.09.2023 10:00 20,9 C 79 % 1010,5 hPa 0,0 l/m 1,1 km/h (1 Bft) SO 17,1 C 20,9 C 3,6 km/h (1 Bft)
17.09.2023 11:00 23,7 C 73 % 1010,2 hPa 0,0 l/m 1,1 km/h (1 Bft) O-SO 18,6 C 23,7 C 2,5 km/h (1 Bft)
17.09.2023 12:00 27,1 C 61 % 1009,9 hPa 0,0 l/m 2,5 km/h (1 Bft) W-NW 18,9 C 27,1 C 3,6 km/h (1 Bft)
17.09.2023 13:00 28,2 C 53 % 1009,3 hPa 0,0 l/m 3,6 km/h (1 Bft) W 17,7 C 28,2 C 6,1 km/h (2 Bft)
17.09.2023 14:00 29,4 C 52 % 1009,1 hPa 0,0 l/m 3,6 km/h (1 Bft) NW 18,5 C 29,4 C 6,1 km/h (2 Bft)
17.09.2023 15:00 30,2 C 46 % 1008,7 hPa 0,0 l/m 2,5 km/h (1 Bft) N 17,3 C 30,2 C 6,1 km/h (2 Bft)
17.09.2023 16:00 31,1 C 48 % 1007,8 hPa 0,0 l/m 0,0 km/h (0 Bft) W 18,8 C 31,1 C 2,5 km/h (1 Bft)
17.09.2023 17:00 31,5 C 45 % 1007,3 hPa 0,0 l/m 2,5 km/h (1 Bft) W-NW 18,1 C 31,5 C 3,6 km/h (1 Bft)
17.09.2023 18:00 31,2 C 46 % 1006,7 hPa 0,0 l/m 2,5 km/h (1 Bft) W-NW 18,2 C 31,2 C 6,1 km/h (2 Bft)
17.09.2023 19:00 30,2 C 46 % 1006,5 hPa 0,0 l/m 1,1 km/h (1 Bft) N-NO 17,3 C 30,2 C 2,5 km/h (1 Bft)
17.09.2023 20:00 25,3 C 64 % 1006,4 hPa 0,0 l/m 2,5 km/h (1 Bft) O 18,0 C 25,3 C 3,6 km/h (1 Bft)
17.09.2023 21:00 22,9 C 70 % 1006,3 hPa 0,0 l/m 1,1 km/h (1 Bft) O 17,1 C 22,9 C 2,5 km/h (1 Bft)
17.09.2023 22:00 21,8 C 73 % 1006,0 hPa 0,0 l/m 2,5 km/h (1 Bft) O-NO 16,7 C 21,8 C 3,6 km/h (1 Bft)
17.09.2023 23:00 20,9 C 73 % 1005,8 hPa 0,0 l/m 2,5 km/h (1 Bft) N 15,9 C 20,9 C 3,6 km/h (1 Bft)
Min-Datum _ 15.09.23 12.09.23 17.09.23 - 11.09.23 - 15.09.23 15.09.23 11.09.23
_ Min-Zeit 08:21 17:21 23:21 - 00:21 - 06:21 08:21 07:21
Minimum _ 11,1 C 31 % 1005,8 hPa - 0,0 km/h (0 Bft) - 10,8 C 11,1 C 0,0 km/h (0 Bft)
Max-Datum _ 11.09.23 14.09.23 14.09.23 13.09.23 12.09.23 - 11.09.23 11.09.23 12.09.23
_ Max-Zeit 16:21 05:21 11:21 02:21 17:21 - 15:21 16:21 17:21
Maximum _ 32,7 C 99 % 1017,0 hPa 0,6 l/m 7,2 km/h
S-SW (2 Bft)
- 19,8 C 32,7 C 11,2 km/h
S-SW (2 Bft)
Durchschnitt _ 20,8 C 78 % 1010,6 hPa #0,9 l/m 1,6 km/h (1 Bft) W 16,3 C 20,8 C 3,2 km/h (1 Bft)
www.sexauwetter.de